Time;durP1;ratioP1;P1;durP2;ratioP2;P2;SDS_P1;SDS_P2;PMS_P1;PMS_P2;Temp;Humidity;BMP_temperature;BMP_pressure;BME280_temperature;BME280_humidity;BME280_pressure;Samples;Min_cycle;Max_cycle;Signal;HPM_P1;HPM_P2
2021/03/06 00:02:23;;;;;;;16.38;13.00;;;8.90;99.90;;;;;;5044864;28;20025;-61
2021/03/06 00:04:49;;;;;;;17.33;13.52;;;8.90;99.90;;;;;;5048817;28;20049;-61
2021/03/06 00:07:14;;;;;;;19.08;13.48;;;9.00;99.90;;;;;;5043505;28;20566;-61
2021/03/06 00:09:40;;;;;;;18.65;13.15;;;8.80;99.90;;;;;;5048948;28;20065;-61
2021/03/06 00:12:07;;;;;;;15.93;12.80;;;8.80;99.90;;;;;;5043755;28;20029;-61
2021/03/06 00:14:33;;;;;;;16.77;12.57;;;8.90;99.90;;;;;;5048855;28;20022;-61
2021/03/06 00:17:00;;;;;;;18.08;13.00;;;9.00;99.90;;;;;;5043612;28;20029;-61
2021/03/06 00:19:27;;;;;;;15.88;12.23;;;8.80;99.90;;;;;;5048889;28;20087;-61
2021/03/06 00:21:52;;;;;;;22.77;13.30;;;8.70;99.90;;;;;;5043490;28;20025;-61
2021/03/06 00:24:18;;;;;;;20.17;13.90;;;8.60;99.90;;;;;;5048810;28;20025;-61
2021/03/06 00:26:44;;;;;;;21.08;14.25;;;8.50;99.90;;;;;;5043558;28;20435;-61
2021/03/06 00:29:10;;;;;;;24.95;14.07;;;8.50;99.90;;;;;;5050019;28;20043;-61
2021/03/06 00:31:36;;;;;;;21.65;13.05;;;8.40;99.90;;;;;;5041633;28;20048;-61
2021/03/06 00:34:03;;;;;;;20.73;13.65;;;8.50;99.90;;;;;;5050566;28;20071;-61
2021/03/06 00:36:29;;;;;;;17.70;13.02;;;8.60;99.90;;;;;;5038664;28;20086;-61
2021/03/06 00:38:55;;;;;;;20.98;14.05;;;8.50;99.90;;;;;;5051032;28;20405;-61
2021/03/06 00:41:21;;;;;;;19.15;13.88;;;8.50;99.90;;;;;;5040626;28;20020;-61
2021/03/06 00:43:46;;;;;;;16.92;14.38;;;8.60;99.90;;;;;;5044966;28;20507;-62
2021/03/06 00:46:12;;;;;;;22.42;14.70;;;8.50;99.90;;;;;;5039234;28;20042;-61
2021/03/06 00:48:37;;;;;;;23.45;13.57;;;8.50;99.90;;;;;;5051798;28;20104;-61
2021/03/06 00:51:03;;;;;;;22.95;14.15;;;8.50;99.90;;;;;;5039065;28;20061;-61
2021/03/06 00:53:29;;;;;;;19.73;14.45;;;8.40;99.90;;;;;;5051893;28;20037;-61
2021/03/06 00:55:55;;;;;;;14.32;12.82;;;8.40;99.90;;;;;;5039389;28;20029;-61
2021/03/06 00:58:20;;;;;;;18.25;14.02;;;8.50;99.90;;;;;;5051530;28;20029;-61
2021/03/06 01:00:46;;;;;;;19.70;14.25;;;8.60;99.90;;;;;;5046594;28;20025;-61
2021/03/06 01:03:12;;;;;;;24.27;14.40;;;8.50;99.90;;;;;;5051597;28;20489;-61
2021/03/06 01:05:37;;;;;;;24.23;15.25;;;8.50;99.90;;;;;;5041236;28;20448;-61
2021/03/06 01:08:05;;;;;;;20.00;13.82;;;8.30;99.90;;;;;;5048988;28;20025;-61
2021/03/06 01:10:39;;;;;;;21.17;14.65;;;8.50;99.90;;;;;;5042341;28;20052;-61
2021/03/06 01:13:06;;;;;;;18.83;13.75;;;8.50;99.90;;;;;;5049168;28;20116;-61
2021/03/06 01:15:32;;;;;;;21.75;14.77;;;8.50;99.90;;;;;;5042263;28;20517;-61
2021/03/06 01:17:58;;;;;;;17.85;14.13;;;8.40;99.90;;;;;;5048116;28;20025;-61
2021/03/06 01:20:24;;;;;;;22.83;14.30;;;8.20;99.90;;;;;;5043076;28;20026;-61
2021/03/06 01:22:49;;;;;;;19.58;15.07;;;8.40;99.90;;;;;;5046810;28;20033;-61
2021/03/06 01:25:16;;;;;;;23.05;15.60;;;8.30;99.90;;;;;;5037320;28;20029;-61
2021/03/06 01:27:42;;;;;;;22.73;15.05;;;8.30;99.90;;;;;;5045675;28;20036;-61
2021/03/06 01:30:09;;;;;;;25.40;15.45;;;8.20;99.90;;;;;;5045332;28;20273;-61
2021/03/06 01:32:34;;;;;;;21.55;15.30;;;8.50;99.90;;;;;;5044512;28;20017;-61
2021/03/06 01:35:00;;;;;;;23.63;15.60;;;8.40;99.90;;;;;;5044361;28;20044;-61
2021/03/06 01:37:26;;;;;;;23.70;15.48;;;8.20;99.90;;;;;;5038449;28;20022;-61
2021/03/06 01:39:52;;;;;;;20.95;14.77;;;8.30;99.90;;;;;;5035978;28;20033;-61
2021/03/06 01:42:21;;;;;;;23.83;15.32;;;8.10;99.90;;;;;;5041888;28;20017;-61
2021/03/06 01:44:47;;;;;;;22.77;15.15;;;8.20;99.90;;;;;;5039057;28;20048;-61
2021/03/06 01:47:13;;;;;;;25.25;16.05;;;8.10;99.90;;;;;;5041774;28;20029;-61
2021/03/06 01:49:39;;;;;;;22.48;16.58;;;8.00;99.90;;;;;;5047210;28;20041;-61
2021/03/06 01:52:05;;;;;;;24.70;16.73;;;7.80;99.90;;;;;;5041722;28;20021;-61
2021/03/06 01:54:32;;;;;;;20.30;15.43;;;8.00;99.90;;;;;;5047043;28;20017;-61
2021/03/06 01:56:58;;;;;;;24.92;17.08;;;8.00;99.90;;;;;;5041587;28;20202;-61
2021/03/06 01:59:24;;;;;;;22.83;15.20;;;7.90;99.90;;;;;;5046978;28;20095;-61
2021/03/06 02:01:49;;;;;;;24.20;16.50;;;8.00;99.90;;;;;;5041579;28;20032;-61
2021/03/06 02:04:15;;;;;;;25.75;16.83;;;7.90;99.90;;;;;;5047875;28;20367;-61
2021/03/06 02:06:41;;;;;;;28.98;16.95;;;8.10;99.90;;;;;;5040424;28;20036;-61
2021/03/06 02:09:07;;;;;;;23.75;17.02;;;8.10;99.90;;;;;;5048780;28;20032;-61
2021/03/06 02:11:36;;;;;;;27.80;16.90;;;8.20;99.90;;;;;;5039517;28;20064;-61
2021/03/06 02:14:49;;;;;;;32.38;18.88;;;8.20;99.90;;;;;;5035911;28;20104;-61
2021/03/06 02:17:34;;;;;;;25.77;17.67;;;8.10;99.90;;;;;;5041378;28;20025;-61
2021/03/06 02:20:23;;;;;;;28.30;16.02;;;8.30;99.90;;;;;;5045785;28;20021;-61
2021/03/06 02:23:33;;;;;;;25.70;16.88;;;8.30;99.90;;;;;;5045493;28;20021;-61
2021/03/06 02:26:01;;;;;;;29.63;17.35;;;8.30;99.90;;;;;;5037575;28;20479;-61
2021/03/06 02:28:44;;;;;;;28.05;17.02;;;8.20;99.90;;;;;;5050168;28;20035;-61
2021/03/06 02:31:12;;;;;;;25.63;17.30;;;8.20;99.90;;;;;;5033052;28;20566;-61
2021/03/06 02:33:43;;;;;;;28.02;18.13;;;8.20;99.90;;;;;;5049973;28;20024;-61
2021/03/06 02:36:12;;;;;;;31.05;17.70;;;8.20;99.90;;;;;;5041560;28;20029;-61
2021/03/06 02:38:40;;;;;;;24.80;16.85;;;8.20;99.90;;;;;;5030099;28;20032;-61
2021/03/06 02:41:09;;;;;;;27.90;17.38;;;8.40;99.90;;;;;;5041255;28;20391;-61
2021/03/06 02:43:35;;;;;;;25.48;17.80;;;8.60;99.90;;;;;;5028405;28;20026;-61
2021/03/06 02:46:05;;;;;;;31.35;17.90;;;8.40;99.90;;;;;;5035139;28;20057;-61
2021/03/06 02:48:33;;;;;;;28.40;18.08;;;8.50;99.90;;;;;;5049766;28;20045;-61
2021/03/06 02:50:58;;;;;;;28.48;17.40;;;8.70;99.90;;;;;;5037331;28;20041;-61
2021/03/06 02:53:24;;;;;;;30.52;17.83;;;8.60;99.90;;;;;;5009997;28;20105;-61
2021/03/06 02:55:50;;;;;;;26.33;18.13;;;8.70;99.90;;;;;;5031302;28;20093;-61
2021/03/06 02:58:49;;;;;;;27.52;17.83;;;8.60;99.90;;;;;;5048454;28;20469;-61
2021/03/06 03:01:45;;;;;;;26.45;18.08;;;8.50;99.90;;;;;;5037124;28;20033;-61
2021/03/06 03:04:55;;;;;;;27.92;17.52;;;8.50;99.90;;;;;;5036860;28;20069;-61
2021/03/06 03:07:35;;;;;;;32.47;18.40;;;8.50;99.90;;;;;;5026420;28;20053;-61
2021/03/06 03:10:08;;;;;;;29.55;18.52;;;8.50;99.90;;;;;;5045224;28;20456;-61
2021/03/06 03:12:38;;;;;;;29.65;17.65;;;8.60;99.90;;;;;;5042574;28;20029;-61
2021/03/06 03:15:10;;;;;;;27.50;17.48;;;8.60;99.90;;;;;;5044726;28;20509;-61
2021/03/06 03:17:51;;;;;;;24.52;17.15;;;8.60;99.90;;;;;;5042848;28;20021;-61
2021/03/06 03:20:38;;;;;;;26.15;16.70;;;8.70;99.90;;;;;;5042828;28;20083;-61
2021/03/06 03:23:11;;;;;;;32.40;18.08;;;8.70;99.90;;;;;;5046584;28;20551;-61
2021/03/06 03:25:38;;;;;;;26.67;17.17;;;8.70;99.90;;;;;;5041643;28;20025;-61
2021/03/06 03:28:05;;;;;;;33.30;18.30;;;8.70;99.90;;;;;;5032312;28;20486;-61
2021/03/06 03:30:31;;;;;;;25.42;17.73;;;8.70;99.90;;;;;;5034413;28;20033;-61
2021/03/06 03:32:59;;;;;;;27.50;17.40;;;8.50;99.90;;;;;;5045463;28;20021;-61
2021/03/06 03:35:26;;;;;;;29.33;18.42;;;8.60;99.90;;;;;;5042207;28;20448;-61
2021/03/06 03:37:54;;;;;;;24.83;17.63;;;8.50;99.90;;;;;;5033931;28;20029;-61
2021/03/06 03:40:20;;;;;;;25.83;18.15;;;8.60;99.90;;;;;;5034420;28;20105;-61
2021/03/06 03:42:47;;;;;;;29.48;18.88;;;8.70;99.90;;;;;;5043450;28;20025;-61
2021/03/06 03:45:15;;;;;;;28.33;19.23;;;8.40;99.90;;;;;;5035102;28;20201;-61
2021/03/06 03:47:42;;;;;;;30.75;18.23;;;8.30;99.90;;;;;;5043172;28;20036;-61
2021/03/06 03:50:10;;;;;;;33.55;18.83;;;8.40;99.90;;;;;;5043755;28;20041;-61
2021/03/06 03:52:42;;;;;;;29.25;19.13;;;8.40;99.90;;;;;;5042376;28;20033;-61
2021/03/06 03:55:09;;;;;;;30.10;20.05;;;8.50;99.90;;;;;;5043851;28;20051;-61
2021/03/06 03:57:35;;;;;;;30.98;19.17;;;8.50;99.90;;;;;;5042121;28;20076;-61
2021/03/06 04:00:04;;;;;;;35.83;20.42;;;8.50;99.90;;;;;;5044618;28;20128;-61
2021/03/06 04:02:30;;;;;;;30.50;18.85;;;8.50;99.90;;;;;;5041448;28;20608;-61
2021/03/06 04:04:56;;;;;;;29.13;18.13;;;8.50;99.90;;;;;;5045328;28;20104;-61
2021/03/06 04:07:22;;;;;;;28.02;18.42;;;8.60;99.90;;;;;;5033050;28;20480;-61
2021/03/06 04:09:48;;;;;;;28.95;19.35;;;8.70;99.90;;;;;;5048899;28;20033;-61
2021/03/06 04:12:13;;;;;;;27.98;19.08;;;8.30;99.90;;;;;;5043603;28;20049;-61
2021/03/06 04:14:39;;;;;;;31.42;18.50;;;8.40;99.90;;;;;;5049080;28;20053;-61
2021/03/06 04:17:05;;;;;;;33.67;18.88;;;8.60;99.90;;;;;;5043274;28;20017;-61
2021/03/06 04:19:30;;;;;;;27.65;18.20;;;8.70;99.90;;;;;;5048705;28;20042;-61
2021/03/06 04:21:56;;;;;;;32.75;19.35;;;8.60;99.90;;;;;;5043230;28;20028;-61
2021/03/06 04:24:22;;;;;;;40.05;19.92;;;8.40;99.90;;;;;;5049144;28;20059;-61
2021/03/06 04:26:51;;;;;;;33.15;19.02;;;8.40;99.90;;;;;;5043201;28;20025;-61
2021/03/06 04:29:20;;;;;;;29.15;19.52;;;8.40;99.90;;;;;;5049814;28;20493;-61
2021/03/06 04:31:47;;;;;;;31.23;19.77;;;8.30;99.90;;;;;;5042808;28;20108;-61
2021/03/06 04:34:13;;;;;;;31.67;19.05;;;8.30;99.90;;;;;;5050251;28;22331;-61
2021/03/06 04:36:38;;;;;;;30.75;19.35;;;8.40;99.90;;;;;;5041475;28;20104;-61
2021/03/06 04:39:05;;;;;;;32.75;19.40;;;8.40;99.90;;;;;;5050917;28;20370;-61
2021/03/06 04:41:31;;;;;;;34.80;19.00;;;8.30;99.90;;;;;;5040838;28;20096;-61
2021/03/06 04:43:57;;;;;;;37.17;20.38;;;8.50;99.90;;;;;;5043455;28;20116;-61
2021/03/06 04:46:22;;;;;;;33.92;19.77;;;8.40;99.90;;;;;;5039620;28;20047;-61
2021/03/06 04:48:49;;;;;;;28.75;18.92;;;8.50;99.90;;;;;;5052050;28;20489;-61
2021/03/06 04:51:15;;;;;;;32.50;18.60;;;8.40;99.90;;;;;;5039293;28;20398;-61
2021/03/06 04:53:40;;;;;;;26.90;17.70;;;8.40;99.90;;;;;;5051762;28;20104;-61
2021/03/06 04:56:06;;;;;;;34.92;19.48;;;8.50;99.90;;;;;;5039267;28;20525;-61
2021/03/06 04:58:32;;;;;;;30.02;18.77;;;8.30;99.90;;;;;;5051664;28;20046;-61
2021/03/06 05:00:57;;;;;;;34.30;20.00;;;8.30;99.90;;;;;;5039571;28;20033;-61
2021/03/06 05:03:23;;;;;;;35.03;19.58;;;8.20;99.90;;;;;;5051349;28;20103;-61
2021/03/06 05:05:49;;;;;;;28.67;18.52;;;8.20;99.90;;;;;;5040427;28;20108;-61
2021/03/06 05:08:14;;;;;;;34.33;19.48;;;8.10;99.90;;;;;;5049878;28;20036;-61
2021/03/06 05:10:40;;;;;;;32.13;19.30;;;7.90;99.90;;;;;;5041748;28;20043;-61
2021/03/06 05:13:05;;;;;;;31.25;19.52;;;8.00;99.90;;;;;;5048392;28;20099;-61
2021/03/06 05:15:31;;;;;;;29.83;19.48;;;8.10;99.90;;;;;;5043111;28;20026;-61
2021/03/06 05:17:58;;;;;;;33.33;18.85;;;8.20;99.90;;;;;;5042024;28;20055;-61
2021/03/06 05:20:24;;;;;;;34.00;19.52;;;8.00;99.90;;;;;;5035891;28;20113;-61
2021/03/06 05:22:49;;;;;;;30.45;18.98;;;8.10;99.90;;;;;;5046025;28;20104;-61
2021/03/06 05:25:15;;;;;;;30.92;19.88;;;8.20;99.90;;;;;;5045263;28;20037;-61
2021/03/06 05:27:41;;;;;;;31.08;19.38;;;8.20;99.90;;;;;;5044745;28;20111;-61
2021/03/06 05:30:08;;;;;;;33.75;19.25;;;8.10;99.90;;;;;;5046270;28;20044;-61
2021/03/06 05:32:33;;;;;;;32.17;19.75;;;8.00;99.90;;;;;;5043383;28;20074;-61
2021/03/06 05:34:59;;;;;;;32.78;19.67;;;8.00;99.90;;;;;;5047166;28;20424;-61
2021/03/06 05:37:24;;;;;;;29.90;18.83;;;8.10;99.90;;;;;;5042090;28;20563;-61
2021/03/06 05:39:51;;;;;;;30.10;18.80;;;8.20;99.90;;;;;;5047427;28;20108;-61
2021/03/06 05:42:17;;;;;;;35.05;19.77;;;8.10;99.90;;;;;;5041801;28;20031;-61
2021/03/06 05:44:43;;;;;;;30.55;18.90;;;8.00;99.90;;;;;;5039319;28;20409;-61
2021/03/06 05:47:08;;;;;;;30.55;19.55;;;8.20;99.90;;;;;;5034728;28;20022;-61
2021/03/06 05:49:34;;;;;;;29.98;19.40;;;8.20;99.90;;;;;;5030804;28;20087;-61
2021/03/06 05:52:01;;;;;;;32.55;18.88;;;8.10;99.90;;;;;;5029287;28;20517;-61
2021/03/06 05:54:29;;;;;;;29.17;18.83;;;8.30;99.90;;;;;;5030585;28;20032;-61
2021/03/06 05:56:55;;;;;;;30.38;18.45;;;8.10;99.90;;;;;;5031700;28;20029;-61
2021/03/06 05:59:22;;;;;;;37.40;21.33;;;8.10;99.90;;;;;;5030681;28;20116;-61
2021/03/06 06:01:48;;;;;;;33.53;20.23;;;7.90;99.90;;;;;;5031515;28;20026;-61
2021/03/06 06:04:16;;;;;;;37.05;20.70;;;7.80;99.90;;;;;;5030697;28;20095;-61
2021/03/06 06:06:42;;;;;;;31.73;20.17;;;8.00;99.90;;;;;;5031085;28;20017;-61
2021/03/06 06:09:08;;;;;;;40.63;21.63;;;7.90;99.90;;;;;;5030553;28;20040;-61
2021/03/06 06:11:34;;;;;;;35.00;21.15;;;7.80;99.90;;;;;;5032193;28;20032;-61
2021/03/06 06:14:02;;;;;;;40.75;22.90;;;7.80;99.90;;;;;;5029611;28;20557;-61
2021/03/06 06:16:32;;;;;;;36.35;21.98;;;7.70;99.90;;;;;;5031119;28;20017;-62
2021/03/06 06:19:00;;;;;;;36.75;21.13;;;7.70;99.90;;;;;;5026844;28;20438;-61
2021/03/06 06:21:55;;;;;;;36.63;20.73;;;7.60;99.90;;;;;;5032809;28;20024;-62
2021/03/06 06:24:24;;;;;;;36.35;20.95;;;8.30;99.90;;;;;;5022830;28;20128;-63
2021/03/06 06:27:01;;;;;;;36.50;20.50;;;7.90;99.90;;;;;;5038930;28;20080;-62
2021/03/06 06:29:46;;;;;;;36.17;21.10;;;7.70;99.90;;;;;;5030014;28;20464;-62
2021/03/06 06:32:17;;;;;;;35.28;21.13;;;7.80;99.90;;;;;;5029866;28;20025;-62
2021/03/06 06:35:05;;;;;;;37.88;21.70;;;7.90;99.90;;;;;;5029698;28;20045;-62
2021/03/06 06:37:32;;;;;;;39.33;22.27;;;7.90;99.90;;;;;;5028090;28;20041;-62
2021/03/06 06:39:58;;;;;;;41.00;22.60;;;7.70;99.90;;;;;;5028965;28;20544;-62
2021/03/06 06:42:35;;;;;;;39.03;21.30;;;7.80;99.90;;;;;;5052277;28;20528;-63
2021/03/06 06:45:04;;;;;;;36.60;20.92;;;7.80;99.90;;;;;;5029247;28;20747;-62
2021/03/06 06:47:35;;;;;;;42.55;21.20;;;7.90;99.90;;;;;;5028647;28;20053;-62
2021/03/06 06:50:01;;;;;;;39.92;21.35;;;7.90;99.90;;;;;;5027886;28;20155;-62
2021/03/06 06:52:36;;;;;;;43.10;22.83;;;7.90;99.90;;;;;;5029235;28;20022;-62
2021/03/06 06:55:03;;;;;;;38.40;23.15;;;7.90;99.90;;;;;;5028774;28;20052;-62
2021/03/06 06:57:29;;;;;;;39.60;20.92;;;7.80;99.90;;;;;;5032645;28;20029;-62
2021/03/06 07:00:09;;;;;;;40.05;23.15;;;7.60;99.90;;;;;;5034750;28;20040;-62
2021/03/06 07:02:35;;;;;;;42.42;22.30;;;7.60;99.90;;;;;;5035256;28;20021;-63
2021/03/06 07:05:04;;;;;;;38.53;21.42;;;7.80;99.90;;;;;;5045656;28;20056;-63
2021/03/06 07:07:41;;;;;;;40.83;21.95;;;7.60;99.90;;;;;;5041099;28;20025;-63
2021/03/06 07:10:12;;;;;;;40.65;22.83;;;7.60;99.90;;;;;;5044963;28;20485;-63
2021/03/06 07:12:55;;;;;;;39.72;21.95;;;7.70;99.90;;;;;;5042776;28;20045;-63
2021/03/06 07:15:22;;;;;;;35.35;21.95;;;7.80;99.90;;;;;;5042866;28;20453;-63
2021/03/06 07:17:51;;;;;;;40.85;22.85;;;7.80;99.90;;;;;;5043973;28;20053;-62
2021/03/06 07:20:22;;;;;;;37.00;21.17;;;7.70;99.90;;;;;;5043026;28;20630;-63
2021/03/06 07:22:49;;;;;;;40.70;22.02;;;7.80;99.90;;;;;;5043853;28;20069;-63
2021/03/06 07:25:14;;;;;;;39.45;21.52;;;7.90;99.90;;;;;;5043753;28;20098;-63
2021/03/06 07:27:44;;;;;;;39.10;21.42;;;8.00;99.90;;;;;;5042628;28;20025;-62
2021/03/06 07:30:11;;;;;;;36.58;21.75;;;7.90;99.90;;;;;;5039966;28;20041;-63
2021/03/06 07:32:39;;;;;;;38.75;21.90;;;7.90;99.90;;;;;;5028699;28;20109;-63
2021/03/06 07:35:07;;;;;;;35.60;21.33;;;8.10;99.90;;;;;;5034174;28;20032;-65
2021/03/06 07:37:33;;;;;;;41.22;21.83;;;8.10;99.90;;;;;;5041446;28;20022;-61
2021/03/06 07:40:00;;;;;;;41.88;21.50;;;8.10;99.90;;;;;;5045732;28;20040;-60
2021/03/06 07:42:45;;;;;;;40.53;22.42;;;8.00;99.90;;;;;;5029269;28;20032;-60
2021/03/06 07:45:14;;;;;;;36.95;21.52;;;8.00;99.90;;;;;;5032875;28;20029;-60
2021/03/06 07:47:42;;;;;;;37.70;21.70;;;8.10;99.90;;;;;;5034271;28;20009;-59
2021/03/06 07:50:13;;;;;;;43.63;22.65;;;8.10;99.90;;;;;;5034496;28;20048;-60
2021/03/06 07:52:40;;;;;;;41.70;22.25;;;8.10;99.90;;;;;;5033974;28;20550;-60
2021/03/06 07:55:10;;;;;;;34.78;21.45;;;8.00;99.90;;;;;;5037877;28;20033;-60
2021/03/06 07:58:01;;;;;;;38.03;22.02;;;8.10;99.90;;;;;;5045452;28;20104;-60
2021/03/06 08:00:57;;;;;;;40.35;22.08;;;8.10;99.90;;;;;;5045507;28;20034;-60
2021/03/06 08:03:36;;;;;;;41.60;21.10;;;8.20;99.90;;;;;;5047062;28;20539;-60
2021/03/06 08:06:18;;;;;;;42.50;21.40;;;8.40;99.90;;;;;;5040958;28;20033;-60
2021/03/06 08:08:44;;;;;;;42.10;21.60;;;8.20;99.90;;;;;;5012863;28;20022;-60
2021/03/06 08:11:20;;;;;;;37.63;22.08;;;8.30;99.90;;;;;;5036889;28;20059;-60
2021/03/06 08:13:47;;;;;;;39.90;21.83;;;8.40;99.90;;;;;;5052674;28;20147;-60
2021/03/06 08:16:22;;;;;;;36.42;21.23;;;8.90;99.90;;;;;;5039833;28;20033;-60
2021/03/06 08:18:57;;;;;;;44.17;21.73;;;8.50;99.90;;;;;;5052660;28;20032;-60
2021/03/06 08:21:42;;;;;;;39.78;21.67;;;8.50;99.90;;;;;;5040105;28;20109;-60
2021/03/06 08:24:14;;;;;;;42.03;21.60;;;8.50;99.90;;;;;;5051273;28;20096;-61
2021/03/06 08:27:02;;;;;;;40.92;20.17;;;8.50;99.90;;;;;;5032732;28;20033;-60
2021/03/06 08:29:27;;;;;;;40.63;22.08;;;8.80;99.90;;;;;;5032933;28;20037;-60
2021/03/06 08:31:54;;;;;;;42.30;22.30;;;8.80;99.90;;;;;;5034562;28;20465;-60
2021/03/06 08:34:44;;;;;;;44.40;21.90;;;9.00;99.90;;;;;;5031621;28;20065;-60
2021/03/06 08:37:22;;;;;;;42.05;22.75;;;8.70;99.90;;;;;;5034702;28;20017;-60
2021/03/06 08:39:57;;;;;;;44.55;22.75;;;8.50;99.90;;;;;;5041948;28;20033;-60
2021/03/06 08:42:38;;;;;;;44.22;22.65;;;8.80;99.90;;;;;;5037249;28;20044;-60
2021/03/06 08:45:07;;;;;;;38.70;22.23;;;9.00;99.90;;;;;;5030897;28;20441;-60
2021/03/06 08:47:35;;;;;;;37.85;21.70;;;8.90;99.90;;;;;;5036482;28;20474;-60
2021/03/06 08:50:13;;;;;;;35.13;22.23;;;8.90;99.90;;;;;;5036471;28;20065;-60
2021/03/06 08:52:40;;;;;;;39.17;21.40;;;8.80;99.90;;;;;;5037316;28;20728;-60
2021/03/06 08:55:10;;;;;;;37.45;22.27;;;8.80;99.90;;;;;;5047071;28;20035;-63
2021/03/06 08:57:36;;;;;;;37.75;20.60;;;8.80;99.90;;;;;;5035444;28;20036;-63
2021/03/06 09:00:24;;;;;;;37.28;21.83;;;8.80;99.90;;;;;;5036742;28;20098;-63
2021/03/06 09:02:50;;;;;;;42.75;22.02;;;8.90;99.90;;;;;;5045271;28;20496;-62
2021/03/06 09:05:28;;;;;;;39.20;21.73;;;8.90;99.90;;;;;;5045430;28;20045;-61
2021/03/06 09:07:55;;;;;;;39.63;21.70;;;8.50;99.90;;;;;;5046122;28;20028;-60
2021/03/06 09:10:25;;;;;;;39.17;22.45;;;8.70;99.90;;;;;;5044901;28;20025;-60
2021/03/06 09:12:55;;;;;;;42.30;21.85;;;8.90;99.90;;;;;;5044767;28;20051;-60
2021/03/06 09:15:41;;;;;;;41.33;21.98;;;8.70;99.90;;;;;;5033437;28;20021;-60
2021/03/06 09:18:08;;;;;;;;;;;8.80;99.90;;;;;;5047399;28;20437;-60
2021/03/06 09:20:47;;;;;;;41.42;21.38;;;8.90;99.90;;;;;;5043603;28;20059;-61
2021/03/06 09:23:23;;;;;;;40.67;22.90;;;8.80;99.90;;;;;;5048358;28;20036;-60
2021/03/06 09:25:49;;;;;;;;;;;8.90;99.90;;;;;;5041240;28;20033;-60
2021/03/06 09:28:21;;;;;;;37.67;21.53;;;8.90;99.90;;;;;;5048699;28;19905;-62
2021/03/06 09:30:46;;;;;;;36.45;21.08;;;8.80;99.90;;;;;;5041319;28;20034;-60
2021/03/06 09:33:22;;;;;;;38.58;21.85;;;8.90;99.90;;;;;;5048362;28;20031;-61
2021/03/06 09:35:55;;;;;;;38.70;21.73;;;9.10;99.90;;;;;;5043910;28;20037;-61
2021/03/06 09:38:21;;;;;;;41.13;21.63;;;9.20;99.90;;;;;;5032364;28;20116;-60
2021/03/06 09:40:47;;;;;;;38.65;20.95;;;9.00;99.90;;;;;;5036002;28;20502;-61
2021/03/06 09:43:27;;;;;;;38.67;22.13;;;9.00;99.90;;;;;;5045919;28;20033;-59
2021/03/06 09:45:54;;;;;;;42.25;22.38;;;9.20;99.90;;;;;;5035514;28;20029;-59
2021/03/06 09:48:20;;;;;;;43.88;24.20;;;9.40;99.90;;;;;;5029171;28;20502;-59
2021/03/06 09:50:47;;;;;;;40.03;23.17;;;9.20;99.90;;;;;;5040253;28;20066;-59
2021/03/06 09:53:20;;;;;;;43.05;22.63;;;9.20;99.90;;;;;;5033397;28;20025;-60
2021/03/06 09:55:47;;;;;;;40.03;22.58;;;9.10;99.90;;;;;;5035728;28;20036;-59
2021/03/06 09:58:21;;;;;;;42.15;23.17;;;9.30;99.90;;;;;;5047935;28;20100;-59
2021/03/06 10:00:47;;;;;;;39.35;23.75;;;9.30;99.90;;;;;;5040736;28;20409;-60
2021/03/06 10:03:31;;;;;;;42.53;22.90;;;9.40;99.90;;;;;;5038395;28;20017;-60
2021/03/06 10:06:00;;;;;;;43.95;24.42;;;9.50;99.90;;;;;;5033750;28;20038;-59
2021/03/06 10:08:27;;;;;;;43.15;24.35;;;9.40;99.90;;;;;;5030035;28;20022;-59
2021/03/06 10:10:53;;;;;;;46.22;24.55;;;9.70;99.90;;;;;;5033254;28;20500;-59
2021/03/06 10:13:19;;;;;;;43.25;25.15;;;9.60;99.90;;;;;;5048525;28;20517;-59
2021/03/06 10:15:46;;;;;;;46.85;25.73;;;9.30;99.90;;;;;;5040855;28;20518;-59
2021/03/06 10:18:12;;;;;;;45.28;26.35;;;9.60;99.90;;;;;;5047557;28;20017;-59
2021/03/06 10:20:38;;;;;;;47.38;25.27;;;9.50;99.90;;;;;;5041650;28;20079;-59
2021/03/06 10:23:04;;;;;;;42.22;24.65;;;9.10;99.90;;;;;;5046224;28;20017;-59
2021/03/06 10:25:30;;;;;;;44.42;24.65;;;9.40;99.90;;;;;;5042882;28;20036;-59
2021/03/06 10:27:55;;;;;;;45.05;24.10;;;9.40;99.90;;;;;;5040722;28;20052;-59
2021/03/06 10:30:27;;;;;;;45.88;21.63;;;9.70;99.90;;;;;;5031551;28;20125;-59
2021/03/06 10:32:57;;;;;;;44.00;22.92;;;9.40;99.90;;;;;;5030715;28;20018;-59
2021/03/06 10:35:32;;;;;;;37.35;22.02;;;9.50;99.90;;;;;;5034550;28;20094;-59
2021/03/06 10:37:58;;;;;;;37.08;21.60;;;9.40;99.90;;;;;;5029682;28;20509;-59
2021/03/06 10:40:44;;;;;;;39.05;21.73;;;9.50;99.90;;;;;;5033712;28;20032;-59
2021/03/06 10:43:24;;;;;;;34.55;21.63;;;9.70;99.90;;;;;;5043922;28;20685;-59
2021/03/06 10:45:49;;;;;;;35.75;21.70;;;9.40;99.90;;;;;;5034612;28;20030;-59
2021/03/06 10:48:29;;;;;;;41.00;21.63;;;9.80;99.90;;;;;;5030511;28;20036;-61
2021/03/06 10:50:56;;;;;;;38.75;22.38;;;9.70;99.90;;;;;;5035941;28;20033;-61
2021/03/06 10:53:22;;;;;;;44.60;23.00;;;9.70;99.90;;;;;;5044944;28;20035;-61
2021/03/06 10:55:50;;;;;;;38.95;21.95;;;9.50;99.90;;;;;;5031454;28;20409;-62
2021/03/06 10:58:16;;;;;;;38.95;22.23;;;9.70;99.90;;;;;;5028418;28;20414;-61
2021/03/06 11:00:44;;;;;;;34.03;21.02;;;9.70;99.90;;;;;;5035979;28;20025;-61
2021/03/06 11:03:11;;;;;;;38.00;22.00;;;9.40;99.90;;;;;;5031528;28;20112;-62
2021/03/06 11:05:39;;;;;;;36.85;21.42;;;9.40;99.90;;;;;;5033391;28;20626;-61
2021/03/06 11:08:18;;;;;;;44.58;22.67;;;9.60;99.90;;;;;;5044936;28;20021;-62
2021/03/06 11:10:49;;;;;;;36.00;21.02;;;9.70;99.90;;;;;;5039972;28;20046;-62
2021/03/06 11:13:16;;;;;;;37.40;20.98;;;9.90;99.90;;;;;;5034225;28;20020;-61
2021/03/06 11:15:53;;;;;;;36.85;21.63;;;9.80;99.90;;;;;;5033861;28;20029;-62
2021/03/06 11:18:19;;;;;;;42.42;23.15;;;10.10;99.90;;;;;;5032283;28;20021;-62
2021/03/06 11:20:47;;;;;;;40.97;22.25;;;10.00;99.90;;;;;;5039374;28;20024;-62
2021/03/06 11:23:13;;;;;;;37.80;21.25;;;9.90;99.90;;;;;;5053012;28;20063;-61
2021/03/06 11:25:39;;;;;;;36.75;21.77;;;9.80;99.90;;;;;;5045320;28;20052;-62
2021/03/06 11:28:14;;;;;;;39.42;21.73;;;9.60;99.90;;;;;;5049243;28;20033;-62
2021/03/06 11:30:43;;;;;;;34.35;21.33;;;10.00;99.90;;;;;;5045931;28;20037;-61
2021/03/06 11:33:16;;;;;;;34.95;20.92;;;10.00;99.90;;;;;;5033012;28;20032;-62
2021/03/06 11:35:42;;;;;;;36.88;21.70;;;10.00;99.90;;;;;;5032345;28;20533;-61
2021/03/06 11:38:10;;;;;;;32.35;20.40;;;10.30;99.90;;;;;;5032257;28;20516;-62
2021/03/06 11:40:39;;;;;;;35.72;21.38;;;10.10;99.90;;;;;;5034417;28;20108;-62
2021/03/06 11:43:04;;;;;;;32.03;20.35;;;10.00;99.90;;;;;;5032008;28;20156;-61
2021/03/06 11:45:30;;;;;;;35.10;22.02;;;10.40;99.90;;;;;;5034428;28;20099;-62
2021/03/06 11:47:57;;;;;;;38.10;21.25;;;10.50;99.90;;;;;;5033780;28;20014;-63
2021/03/06 11:50:26;;;;;;;35.70;20.02;;;10.70;99.90;;;;;;5033485;28;20037;-61
2021/03/06 11:52:52;;;;;;;32.88;20.38;;;10.30;99.90;;;;;;5030776;28;20387;-62
2021/03/06 11:55:18;;;;;;;33.78;20.73;;;10.30;99.90;;;;;;5033941;28;20029;-62
2021/03/06 11:57:44;;;;;;;33.88;20.80;;;10.40;99.90;;;;;;5032808;28;20026;-61
2021/03/06 12:00:21;;;;;;;36.92;20.95;;;10.60;99.90;;;;;;5040123;28;20033;-61
2021/03/06 12:02:47;;;;;;;35.28;20.50;;;10.80;99.90;;;;;;5046465;28;20021;-62
2021/03/06 12:05:13;;;;;;;37.63;21.23;;;11.00;99.90;;;;;;5047695;28;20053;-62
2021/03/06 12:07:40;;;;;;;30.98;19.83;;;11.00;99.90;;;;;;5045190;28;20100;-62
2021/03/06 12:10:08;;;;;;;36.20;21.48;;;11.20;99.90;;;;;;5049057;28;20048;-62
2021/03/06 12:12:33;;;;;;;30.67;19.20;;;10.60;99.90;;;;;;5044241;28;20389;-62
2021/03/06 12:14:59;;;;;;;33.85;19.92;;;10.70;99.90;;;;;;5049068;28;20041;-62
2021/03/06 12:17:25;;;;;;;35.88;21.08;;;10.90;99.90;;;;;;5043887;28;20533;-62
2021/03/06 12:19:50;;;;;;;39.63;20.90;;;10.90;99.90;;;;;;5049163;28;20026;-62
2021/03/06 12:22:16;;;;;;;32.42;19.88;;;10.90;99.90;;;;;;5042451;28;20037;-62
2021/03/06 12:24:41;;;;;;;38.95;21.10;;;11.10;99.90;;;;;;5049162;28;20022;-62
2021/03/06 12:27:07;;;;;;;34.30;21.00;;;11.10;99.90;;;;;;5043560;28;20630;-62
2021/03/06 12:29:33;;;;;;;33.83;21.05;;;11.30;99.90;;;;;;5048594;28;20029;-62
2021/03/06 12:31:59;;;;;;;33.42;19.98;;;11.50;99.90;;;;;;5036765;28;20038;-62
2021/03/06 12:34:25;;;;;;;33.63;21.33;;;11.40;99.90;;;;;;5032937;28;20235;-62
2021/03/06 12:36:51;;;;;;;32.25;20.40;;;11.40;99.90;;;;;;5041472;28;20035;-62
2021/03/06 12:39:17;;;;;;;34.17;20.95;;;11.10;99.90;;;;;;5050982;28;20021;-62
2021/03/06 12:41:43;;;;;;;35.00;21.85;;;11.30;99.90;;;;;;5039236;28;20092;-62
2021/03/06 12:44:09;;;;;;;38.38;21.70;;;11.30;99.90;;;;;;5041605;28;20067;-62
2021/03/06 12:46:35;;;;;;;29.15;20.38;;;11.50;99.90;;;;;;5041795;28;20494;-62
2021/03/06 12:49:01;;;;;;;34.20;19.75;;;11.70;99.90;;;;;;5032375;28;20100;-63